• Join FlightAware (Why Join?)
  • Login
  • US Flag 
02:33AM EDT


 

Airport Tracker/Info


-or-


 

Live Flight TrackerFlight Track Log ✈ UPS1337 ✈ 03-Jul-2014 ✈ KPIE - KSDF

Flight Track Log - Related Links

Times and Time Zones

All times are in EDT time to prevent confusion due to time zone crossing. See the UPS1337 flight status page for this flight to view local times or setup timezone preferences in your user account.

Time Position Orientation Groundspeed Altitude Reporting Facility
EDT Latitude Longitude Course Direction KTS MPH feet Rate Location/Type
09:45PM 27.9000 -82.6833 318° Northwest 172 198 800  Level Tampa TRACON
09:47PM 27.9614 -82.7461 318° Northwest 228 262 7,000 2,880 Climbing Miami Center
09:48PM 28.0394 -82.7656 348° North 277 319 10,100 2,340 Climbing Miami Center
09:49PM 28.1394 -82.7894 348° North 355 409 11,900 1,920 Climbing Miami Center
09:50PM 28.2744 -82.8239 347° North 406 467 14,100 2,520 Climbing Miami Center
09:51PM 28.3883 -82.8536 347° North 414 476 17,100 2,700 Climbing Miami Center
09:52PM 28.5036 -82.8942 343° North 434 499 19,600 2,400 Climbing Miami Center
09:53PM 28.6167 -82.9486 337° Northwest 447 514 22,100 2,280 Climbing Miami Center
09:54PM 28.7350 -83.0064 337° Northwest 460 529 24,300 1,980 Climbing Miami Center
09:55PM 28.8572 -83.0703 335° Northwest 452 520 26,300 1,800 Climbing Jacksonville Center
09:56PM 28.9908 -83.1108 345° North 473 544 28,100 1,860 Climbing Jacksonville Center
09:57PM 29.1200 -83.1542 344° North 486 559 30,100 1,860 Climbing Jacksonville Center
09:58PM 29.2558 -83.1925 346° North 491 565 31,900 1,800 Climbing Jacksonville Center
09:59PM 29.3892 -83.2286 347° North 491 565 33,800 1,500 Climbing Jacksonville Center
10:00PM 29.5186 -83.2625 347° North 486 559 34,900 300 Climbing Jacksonville Center
10:06PM 30.3941 -83.4852 347° North 500 575 36,000 120 Climbing FlightAware ADS-B (KTLH)
10:07PM 30.5337 -83.5216 347° North 497 572 36,000  Level FlightAware ADS-B (KTLH)
10:08PM 30.6172 -83.5436 347° North 493 567 36,000  Level FlightAware ADS-B (KTLH)
10:09PM 30.6990 -83.5651 347° North 492 566 36,000  Level FlightAware ADS-B (KTLH)
10:09PM 30.7831 -83.5873 347° North 493 567 36,000  Level FlightAware ADS-B (KTLH)
10:10PM 30.8717 -83.6105 347° North 492 566 36,000  Level FlightAware ADS-B (KTLH)
10:10PM 30.9427 -83.6292 347° North 492 566 36,000  Level FlightAware ADS-B (KTLH)
10:11PM 31.0317 -83.6527 347° North 493 567 36,000  Level FlightAware ADS-B (KTLH)
10:12PM 31.1034 -83.6717 347° North 494 568 36,000  Level FlightAware ADS-B (KTLH)
10:12PM 31.2043 -83.6984 347° North 494 568 36,000  Level FlightAware ADS-B (KTLH)
10:13PM 31.3042 -83.7250 347° North 493 567 36,000  Level FlightAware ADS-B (KTLH)
10:13PM 31.3350 -83.7350 347° North 495 570 36,000  Level Atlanta Center
10:14PM 31.4686 -83.7711 347° North 489 563 36,000  Level Atlanta Center
10:15PM 31.5772 -83.8025 346° North 484 557 36,000  Level Atlanta Center
10:16PM 31.7297 -83.8461 346° North 495 570 36,000  Level Atlanta Center
10:17PM 31.8656 -83.8800 348° North 500 575 36,000  Level Atlanta Center
10:18PM 31.9969 -83.9139 348° North 494 568 36,000  Level Atlanta Center
10:19PM 31.9412 -83.8868 347° North  Level FlightAware Approximate
10:19PM 32.1286 -83.9481 348° North 489 563 36,000  Level Atlanta Center
10:20PM 32.2600 -83.9847 347° North 489 563 36,000  Level Atlanta Center
10:21PM 32.3936 -84.0192 348° North 489 563 36,000  Level Atlanta Center
10:22PM 32.5272 -84.0586 346° North 489 563 36,000  Level Atlanta Center
10:23PM 32.6586 -84.0931 348° North 489 563 36,000  Level Atlanta Center
10:24PM 32.7903 -84.1253 348° North 484 557 36,000  Level Atlanta Center
10:25PM 32.9175 -84.1625 346° North 478 550 36,000  Level Atlanta Center
10:26PM 33.0489 -84.2000 347° North 478 550 36,000  Level Atlanta Center
10:27PM 33.1783 -84.2375 346° North 471 542 36,000  Level Atlanta Center
10:28PM 33.3078 -84.2725 347° North 471 542 36,000  Level Atlanta Center
10:29PM 33.4392 -84.3078 347° North 471 542 36,000  Level Atlanta Center
10:30PM 33.5664 -84.3431 347° North 471 542 36,000  Level Atlanta Center
10:31PM 33.7081 -84.3858 346° North 471 542 36,000  Level Atlanta Center
10:32PM 33.8394 -84.4214 347° North 481 554 36,000  Level Atlanta Center
10:33PM 33.9731 -84.4572 347° North 486 559 36,000  Level Atlanta Center
10:34PM 34.1003 -84.4953 346° North 481 554 36,000  Level Atlanta Center
10:35PM 34.2378 -84.5314 348° North 491 565 36,000  Level Atlanta Center
10:36PM 34.3692 -84.5672 347° North 486 559 36,000  Level Atlanta Center
10:37PM 34.4983 -84.6058 346° North 486 559 36,000 -420 Level Atlanta Center
10:41PM 35.0047 -84.7539 346° North 476 548 34,000 -420 Descending Atlanta Center
10:42PM 35.1381 -84.7906 347° North 476 548 34,000  Level Atlanta Center
10:43PM 34.4465 -84.5904 346° North 477 549 34,000  Level FlightAware ADS-B (KMDQ)
10:43PM 35.2714 -84.8300 346° North 476 548 34,000  Level Atlanta Center
10:44PM 35.4025 -84.8694 346° North 481 554 34,000  Level Atlanta Center
10:45PM 35.5336 -84.9089 346° North 481 554 34,000  Level Atlanta Center
10:46PM 35.6628 -84.9461 347° North 481 554 34,000 -1,020 Level Atlanta Center
10:47PM 34.8863 -84.7199 346° North  Level Estimated
10:52PM 36.4474 -85.1336 349° North 464 534 27,200  Level FlightAware ADS-B (KBRY)
10:53PM 36.5795 -85.1557 357° North 455 524 26,200 -960 Descending FlightAware ADS-B (KBRY)
10:54PM 36.7086 -85.1428 10° North 456 525 25,200 -1,020 Descending FlightAware ADS-B (KBRY)
10:55PM 36.7876 -85.1262 10° North 452 520 24,500 -900 Descending FlightAware ADS-B (KBRY)
10:56PM 36.9424 -85.0951 North 396 456 23,400 -900 Descending FlightAware ADS-B (KBRY)
10:57PM 37.0419 -85.0412 29° Northeast 398 458 22,400 -960 Descending FlightAware ADS-B (KBRY)
10:58PM 37.1155 -84.9906 26° Northeast 388 447 21,600 -1,200 Descending FlightAware ADS-B (KBRY)
10:59PM 37.2401 -84.9667 North 364 419 20,100 -2,040 Descending FlightAware ADS-B (KBRY)
11:00PM 37.3401 -84.9632 North 347 399 17,300 -2,580 Descending FlightAware ADS-B (KBRY)
11:01PM 37.4333 -84.9598 North 332 382 15,000 -2,280 Descending FlightAware ADS-B (KBRY)
11:02PM 37.5244 -84.9566 North 319 367 12,800 -1,740 Descending FlightAware ADS-B (KBRY)
11:04PM 37.6934 -85.0034 312° West 334 384 9,800 -1,020 Descending FlightAware ADS-B (KBRY)
11:05PM 37.7549 -85.0901 312° West 335 386 9,800 -120 Level FlightAware ADS-B (KBRY)
11:06PM 37.8039 -85.1755 292° West 284 327 9,600 -720 Descending FlightAware ADS-B (KBRY)
11:07PM 37.8330 -85.2672 292° West 281 323 8,400 -1,380 Descending FlightAware ADS-B (KBRY)
11:08PM 37.8626 -85.3585 292° West 281 323 6,900 -1,320 Descending FlightAware ADS-B (KBRY)
11:09PM 37.8919 -85.4481 292° West 272 313 5,800 -1,080 Descending FlightAware ADS-B (KBRY)
11:10PM 37.9200 -85.5363 292° West 262 302 4,800 -1,020 Descending FlightAware ADS-B (KBRY)
11:11PM 37.9609 -85.6095 313° West 259 298 3,800 -900 Descending FlightAware ADS-B (KBRY)
11:12PM 38.0093 -85.6739 314° West 240 276 3,000 -780 Descending FlightAware ADS-B (KBRY)
11:14PM 38.0933 -85.7178 345° North 126 145 1,500 -720 Descending FlightAware ADS-B (KBRY)
11:15PM 38.1233 -85.7278 345° North 127 146 900 -660 Descending FlightAware ADS-B (KBRY)
11:23PM 38.1667 -85.7333 208° Southwest  Level FlightAware Approximate
11:24PM 38.1741 -85.7365 208° Southwest  Level Estimated